Latest Weather Observations for Tibooburra Airport

IDN60801

Issued at 1:22 pm EDT Saturday 17 November 2018 (issued every 10 minutes, with the page automatically refreshed every 10 minutes)

About weather observations | Map of weather stations | Latest weather observations for NSW | Other Formats
Station Details ID: 046126 Name: TIBOOBURRA AIRPORT Lat: -29.44 Lon: 142.06 Height: 176.4 m
Data from the previous 72 hours. | See also: Recent months at Tibooburra Airport
Date/Time
EDT
Temp
°C
App
Temp
°C
Dew
Point
°C
Rel
Hum
%
Delta-T
°C
Wind Press
QNH
hPa
Press
MSL
hPa
Rain since
9am
mm
Dir  Spd
km/h
Gust
km/h
Spd
kts
Gust
kts
17/01:00pm 31.1 24.5 -7.0 8 16.4 SE 20 35 11 19 1016.7 1015.7 0.0
17/12:30pm 30.0 22.9 -7.8 8 15.9 ESE 22 32 12 17 1017.1 1016.2 0.0
17/12:00pm 30.4 23.4 -7.5 8 16.0 SE 22 35 12 19 1017.4 1016.5 0.0
17/11:30am 29.2 22.2 -6.9 9 15.3 ESE 22 32 12 17 1017.7 1016.8 0.0
17/11:00am 28.3 20.6 -6.2 10 14.7 ESE 26 33 14 18 1017.9 1017.0 0.0
17/10:30am 27.3 19.7 -5.7 11 14.1 ESE 26 32 14 17 1018.0 1017.1 0.0
17/10:00am 26.7 19.9 -5.0 12 13.6 ESE 22 28 12 15 1018.0 1017.1 0.0
17/09:30am 25.6 18.3 -5.9 12 13.2 ESE 24 30 13 16 1018.1 1017.2 0.0
17/09:00am 24.6 18.2 -4.6 14 12.4 SE 20 28 11 15 1018.0 1017.1 0.0
17/08:30am 23.4 17.2 -4.7 15 11.8 SSE 19 24 10 13 1017.9 1017.0 0.0
17/08:00am 22.7 17.0 -3.6 17 11.2 S 17 22 9 12 1017.6 1016.7 0.0
17/07:30am 20.9 16.5 -2.2 21 9.9 SW 11 13 6 7 1017.4 1016.5 0.0
17/07:00am 19.9 16.0 -1.8 23 9.3 S 9 11 5 6 1016.9 1015.9 0.0
17/06:30am 19.7 15.4 -2.0 23 9.3 SSE 11 13 6 7 1016.5 1015.5 0.0
17/06:00am 20.2 15.8 -2.2 22 9.6 SSE 11 13 6 7 1016.0 1015.1 0.0
17/05:30am 20.6 16.3 -1.8 22 9.7 SSE 11 15 6 8 1015.7 1014.8 0.0
17/05:00am 20.6 16.3 -1.8 22 9.7 SSE 11 13 6 7 1015.6 1014.7 0.0
17/04:30am 21.1 16.8 -2.0 21 10.0 SE 11 13 6 7 1015.6 1014.7 0.0
17/04:00am 21.9 16.7 -2.7 19 10.6 SE 15 20 8 11 1015.4 1014.5 0.0
17/03:30am 22.2 17.4 -2.5 19 10.7 SE 13 17 7 9 1015.2 1014.3 0.0
17/03:00am 22.5 17.6 -3.0 18 10.9 SE 13 19 7 10 1015.4 1014.5 0.0
17/02:30am 23.2 17.9 -4.0 16 11.5 SSE 15 20 8 11 1015.7 1014.8 0.0
17/02:00am 24.0 17.9 -4.2 15 12.0 SE 19 26 10 14 1015.6 1014.7 0.0
17/01:30am 24.8 18.0 -5.5 13 12.7 SSE 22 28 12 15 1015.6 1014.7 0.0
17/01:00am 25.0 19.0 -6.3 12 12.9 SSE 17 24 9 13 1015.9 1015.0 0.0
17/12:30am 25.7 19.2 -8.2 10 13.6 SSE 19 26 10 14 1015.9 1015.0 0.0
17/12:00am 26.1 20.0 -7.9 10 13.7 SSE 17 20 9 11 1016.0 1015.1 0.0
 
Date/Time
EDT
Temp
°C
App
Temp
°C
Dew
Point
°C
Rel
Hum
%
Delta-T
°C
Wind Press
QNH
hPa
Press
MSL
hPa
Rain since
9am
mm
Dir  Spd
km/h
Gust
km/h
Spd
kts
Gust
kts
16/11:30pm 26.8 20.7 -7.3 10 14.0 SSE 17 20 9 11 1016.4 1015.4 0.0
16/11:00pm 27.3 20.8 -8.3 9 14.5 S 19 24 10 13 1016.3 1015.3 0.0
16/10:30pm 27.8 21.1 -7.9 9 14.7 S 20 24 11 13 1016.1 1015.2 0.0
16/10:00pm 28.3 21.8 -7.6 9 14.9 S 19 22 10 12 1015.9 1015.0 0.0
16/09:30pm 28.9 22.3 -8.6 8 15.4 S 19 24 10 13 1015.6 1014.7 0.0
16/09:00pm 29.5 23.4 -8.2 8 15.7 S 17 22 9 12 1015.3 1014.4 0.0
16/08:30pm 30.3 23.8 -7.6 8 16.0 S 19 28 10 15 1015.1 1014.2 0.0
16/08:00pm 31.1 24.5 -8.7 7 16.6 S 19 24 10 13 1014.9 1014.0 0.0
16/07:30pm 31.6 24.1 -8.3 7 16.9 S 24 30 13 16 1014.7 1013.8 0.0
16/07:00pm 32.1 25.6 -6.3 8 16.9 S 20 26 11 14 1014.4 1013.5 0.0
16/06:30pm 32.7 26.2 -7.6 7 17.4 SSE 19 28 10 15 1014.3 1013.4 0.0
16/06:00pm 32.9 27.0 -5.7 8 17.2 SSW 17 24 9 13 1014.2 1013.3 0.0
16/05:30pm 33.5 26.7 -5.2 8 17.5 SSW 22 32 12 17 1014.2 1013.3 0.0
16/05:00pm 33.3 27.0 -5.4 8 17.4 SE 19 30 10 16 1014.2 1013.3 0.0
16/04:30pm 33.9 27.5 -4.9 8 17.7 S 20 32 11 17 1014.3 1013.4 0.0
16/04:00pm 33.4 26.2 -5.3 8 17.5 S 24 35 13 19 1014.6 1013.7 0.0
16/03:30pm 32.7 27.3 -4.3 9 16.9 SSE 15 32 8 17 1015.1 1014.2 0.0
16/03:00pm 33.0 27.8 -2.6 10 16.7 S 15 24 8 13 1015.6 1014.7 0.0
16/02:30pm 32.6 27.3 1.7 14 15.6 S 19 33 10 18 1015.9 1015.0 0.0
16/02:00pm 32.3 28.4 3.3 16 15.0 S 13 24 7 13 1016.5 1015.5 0.0
16/01:30pm 31.3 28.2 3.4 17 14.3 SSW 9 19 5 10 1017.1 1016.2 0.0
16/01:00pm 31.1 27.5 3.2 17 14.3 S 11 20 6 11 1017.6 1016.7 0.0
16/12:30pm 30.7 26.6 4.4 19 13.7 S 15 24 8 13 1017.9 1017.0 0.0
16/12:00pm 30.6 26.5 4.4 19 13.6 SE 15 24 8 13 1018.1 1017.2 0.0
16/11:30am 29.5 25.8 4.2 20 13.0 SE 13 24 7 13 1018.3 1017.4 0.0
16/11:00am 29.4 24.9 4.1 20 13.0 E 17 24 9 13 1018.4 1017.5 0.0
16/10:30am 28.8 23.6 3.6 20 12.8 E 20 26 11 14 1018.7 1017.8 0.0
16/10:00am 27.9 22.7 3.6 21 12.3 ESE 20 30 11 16 1018.7 1017.8 0.0
16/09:30am 26.6 21.0 3.2 22 11.6 ESE 22 28 12 15 1018.7 1017.8 0.0
16/09:00am 25.4 20.1 2.8 23 11.1 SE 20 26 11 14 1018.7 1017.8 0.0
16/08:30am 24.5 19.4 3.2 25 10.4 SE 19 24 10 13 1018.7 1017.8 0.0
16/08:00am 23.5 18.8 2.9 26 10.0 SSE 17 20 9 11 1018.3 1017.4 0.0
16/07:30am 22.4 17.7 3.0 28 9.3 SSE 17 20 9 11 1018.0 1017.1 0.0
16/07:00am 21.6 18.2 3.8 31 8.6 SSE 11 15 6 8 1018.1 1017.2 0.0
16/06:30am 21.1 17.8 4.6 34 8.1 SSE 11 15 6 8 1017.8 1016.9 0.0
16/06:00am 21.5 18.3 5.0 34 8.2 SSE 11 17 6 9 1017.6 1016.7 0.0
16/05:30am 22.0 18.5 5.4 34 8.3 SSE 13 19 7 10 1017.4 1016.5 0.0
16/05:00am 22.2 18.8 6.0 35 8.2 SE 13 19 7 10 1017.2 1016.3 0.0
16/04:30am 22.7 19.0 6.5 35 8.3 SE 15 20 8 11 1017.2 1016.3 0.0
16/04:00am 23.0 19.0 6.7 35 8.4 SSE 17 20 9 11 1017.0 1016.0 0.0
16/03:30am 23.5 19.5 6.7 34 8.7 SSE 17 22 9 12 1017.2 1016.3 0.0
16/03:00am 23.8 20.6 7.0 34 8.8 SSE 13 19 7 10 1017.4 1016.5 0.0
16/02:30am 24.2 20.6 6.9 33 9.1 SSE 15 19 8 10 1017.4 1016.5 0.0
16/02:00am 24.6 21.0 6.8 32 9.3 SSE 15 19 8 10 1017.5 1016.6 0.0
16/01:30am 25.2 20.9 6.9 31 9.6 SSE 19 24 10 13 1017.8 1016.9 0.0
16/01:00am 25.8 20.4 6.4 29 10.1 SSE 24 32 13 17 1017.9 1017.0 0.0
16/12:30am 26.2 20.5 6.8 29 10.3 SSE 26 33 14 18 1018.0 1017.1 0.0
16/12:00am 26.7 21.4 6.7 28 10.6 SSE 24 32 13 17 1018.1 1017.2 0.0
 
Date/Time
EDT
Temp
°C
App
Temp
°C
Dew
Point
°C
Rel
Hum
%
Delta-T
°C
Wind Press
QNH
hPa
Press
MSL
hPa
Rain since
9am
mm
Dir  Spd
km/h
Gust
km/h
Spd
kts
Gust
kts
15/11:30pm 27.3 22.1 7.2 28 10.8 SSE 24 35 13 19 1018.0 1017.1 0.0
15/11:00pm 28.0 23.2 7.3 27 11.1 SSE 22 28 12 15 1017.9 1017.0 0.0
15/10:30pm 28.5 23.6 7.1 26 11.5 S 22 30 12 16 1017.8 1016.9 0.0
15/10:00pm 29.0 24.3 7.6 26 11.6 S 22 32 12 17 1017.6 1016.7 0.0
15/09:30pm 29.5 25.2 6.8 24 12.2 S 19 24 10 13 1017.2 1016.3 0.0
15/09:00pm 30.2 25.3 6.8 23 12.6 S 22 30 12 16 1016.9 1015.9 0.0
15/08:30pm 30.5 26.4 7.7 24 12.5 S 19 26 10 14 1016.7 1015.7 0.0
15/08:00pm 31.1 26.7 7.5 23 13.0 S 20 26 11 14 1016.6 1015.6 0.0
15/07:30pm 31.7 26.9 7.4 22 13.4 S 22 30 12 16 1016.3 1015.3 0.0
15/07:00pm 32.3 28.4 7.2 21 13.8 S 17 24 9 13 1016.0 1015.1 0.0
15/06:30pm 32.7 28.2 6.8 20 14.2 SSW 20 35 11 19 1015.9 1015.0 0.0
15/06:00pm 33.1 29.2 7.1 20 14.3 S 17 26 9 14 1015.8 1014.9 0.0
15/05:30pm 33.3 28.9 7.3 20 14.4 SSW 20 30 11 16 1015.7 1014.8 0.0
15/05:00pm 33.2 29.9 7.9 21 14.1 S 15 24 8 13 1015.8 1014.9 0.0
15/04:30pm 32.9 29.7 8.4 22 13.8 SE 15 30 8 16 1016.0 1015.1 0.0
15/04:00pm 33.0 28.9 7.8 21 14.0 SSE 19 28 10 15 1016.1 1015.2 0.0
15/03:30pm 32.8 29.8 7.6 21 14.0 SSE 13 20 7 11 1016.4 1015.4 0.0
15/03:00pm 33.8 31.0 8.4 21 14.3 SSW 13 30 7 16 1016.9 1015.9 0.0
15/02:30pm 32.4 29.9 8.0 22 13.6 SE 11 20 6 11 1017.3 1016.4 0.0
15/02:00pm 32.0 28.0 8.3 23 13.2 SE 19 28 10 15 1017.7 1016.8 0.0
15/01:30pm 31.8 28.1 8.1 23 13.2 ESE 17 28 9 15 1018.0 1017.1 0.0
15/01:00pm 31.0 27.0 8.1 24 12.7 SE 19 26 10 14 1018.3 1017.4 0.0
15/12:30pm 30.8 26.7 8.5 25 12.4 SE 20 26 11 14 1018.6 1017.7 0.0
15/12:00pm 30.5 25.7 8.8 26 12.1 SE 24 37 13 20 1018.7 1017.8 0.0
15/11:30am 29.2 23.7 7.7 26 11.7 SE 26 33 14 18 1019.0 1018.1 0.0
15/11:00am 28.3 23.0 8.6 29 10.8 SE 26 33 14 18 1019.1 1018.2 0.0
15/10:30am 26.9 21.5 7.9 30 10.3 SE 26 35 14 19 1019.2 1018.3 0.0
15/10:00am 26.1 20.6 7.7 31 9.9 SE 26 37 14 20 1019.3 1018.4 0.0
15/09:30am 26.1 20.3 8.1 32 9.7 SE 28 37 15 20 1019.2 1018.3 0.0
15/09:00am 25.6 20.6 8.1 33 9.4 SE 24 33 13 18 1019.0 1018.1 0.0
15/08:30am 24.6 18.7 7.7 34 9.0 SSE 28 35 15 19 1018.7 1017.8 0.0
15/08:00am 24.4 19.2 8.8 37 8.4 SSE 26 33 14 18 1018.3 1017.4 0.0
15/07:30am 23.9 20.0 10.9 44 7.3 SSE 22 30 12 16 1018.1 1017.2 0.0
15/07:00am 23.7 20.8 13.0 51 6.2 SSE 20 28 11 15 1017.7 1016.8 0.0
15/06:30am 23.6 21.1 13.5 53 5.9 SSE 19 24 10 13 1017.2 1016.3 0.0
15/06:00am 23.7 22.3 14.4 56 5.5 SSE 15 20 8 11 1016.9 1015.9 0.0
15/05:30am 23.7 22.4 13.6 53 5.9 S 13 17 7 9 1016.5 1015.5 0.0
15/05:00am 24.2 23.0 14.0 53 6.0 SSE 13 15 7 8 1016.1 1015.2 0.0
15/04:30am 24.4 23.3 14.2 53 6.1 SSE 13 17 7 9 1015.7 1014.8 0.0
15/04:00am 24.8 22.7 13.7 50 6.6 SSE 17 20 9 11 1015.5 1014.6 0.0
15/03:30am 25.0 23.1 12.9 47 7.1 SSE 15 20 8 11 1015.4 1014.5 0.0
15/03:00am 25.4 23.0 12.6 45 7.4 SSE 17 22 9 12 1015.4 1014.5 0.0
15/02:30am 25.5 24.0 13.0 46 7.3 SSE 13 19 7 10 1015.5 1014.6 0.0
15/02:00am 25.6 24.2 13.5 47 7.1 S 13 15 7 8 1015.7 1014.8 0.0
15/01:30am 26.3 24.0 13.1 44 7.8 S 17 20 9 11 1016.0 1015.1 0.0
15/01:00am 26.7 24.7 12.7 42 8.2 S 15 17 8 9 1016.3 1015.3 0.0
15/12:30am 27.4 25.9 13.0 41 8.5 SSE 13 17 7 9 1016.1 1015.2 0.0
15/12:00am 27.6 25.9 12.4 39 8.9 ESE 13 17 7 9 1016.0 1015.1 0.0
 
Date/Time
EDT
Temp
°C
App
Temp
°C
Dew
Point
°C
Rel
Hum
%
Delta-T
°C
Wind Press
QNH
hPa
Press
MSL
hPa
Rain since
9am
mm
Dir  Spd
km/h
Gust
km/h
Spd
kts
Gust
kts
14/11:30pm 28.0 26.7 12.4 38 9.2 SE 11 15 6 8 1015.9 1015.0 0.0
14/11:00pm 27.6 28.3 13.5 41 8.4 SSE 2 11 1 6 1015.9 1015.0 0.0
14/10:30pm 27.7 28.5 12.5 39 8.9 CALM 0 0 0 0 1015.6 1014.7 0.0
14/10:00pm 28.0 28.6 12.0 37 9.3 CALM 0 0 0 0 1015.2 1014.3 0.0
14/09:30pm 28.3 28.7 11.4 35 9.8 CALM 0 0 0 0 1015.0 1014.1 0.0
14/09:00pm 29.0 28.2 11.1 33 10.3 E 6 7 3 4 1014.7 1013.8 0.0
14/08:30pm 29.7 28.3 10.8 31 10.9 E 9 9 5 5 1014.5 1013.6 0.0
14/08:00pm 30.4 29.0 10.9 30 11.3 E 9 11 5 6 1014.3 1013.4 0.0
14/07:30pm 30.9 28.6 10.3 28 11.8 E 13 15 7 8 1014.0 1013.1 0.0
14/07:00pm 30.9 28.6 10.3 28 11.8 E 13 17 7 9 1013.8 1012.9 0.0
14/06:30pm 31.4 29.4 10.2 27 12.2 ENE 11 19 6 10 1013.5 1012.6 0.0
14/06:00pm 31.7 28.8 9.8 26 12.5 E 15 20 8 11 1013.4 1012.5 0.0
14/05:30pm 31.1 28.3 11.5 30 11.5 E 17 22 9 12 1013.5 1012.6 0.0
14/05:00pm 31.4 28.0 11.2 29 11.8 E 20 30 11 16 1013.5 1012.6 0.0
14/04:42pm 31.6 29.6 11.4 29 11.8 ESE 13 35 7 19 1013.6 1012.7 0.0
14/04:30pm 31.8 30.0 9.3 25 12.8 SSE 9 20 5 11 1013.6 1012.7 0.0
14/04:00pm 31.7 29.9 11.0 28 12.1 E 11 20 6 11 1013.8 1012.9 0.0
14/03:30pm 32.1 31.2 11.3 28 12.2 N 7 17 4 9 1013.8 1012.9 0.0
14/03:00pm 31.8 29.2 12.1 30 11.7 E 17 22 9 12 1014.1 1013.2 0.0
14/02:30pm 32.0 30.6 12.3 30 11.7 E 11 19 6 10 1014.4 1013.5 0.0
14/02:00pm 30.9 29.2 12.3 32 11.0 ENE 13 20 7 11 1014.6 1013.7 0.0
14/01:30pm 30.3 28.7 12.7 34 10.5 NE 13 22 7 12 1015.0 1014.1 0.0

Other Formats:

Comma delimited format used in spreadsheet applications
http://www.bom.gov.au/fwo/IDN60801/IDN60801.95485.axf

JavaScript Object Notation format (JSON) in row-major order
http://www.bom.gov.au/fwo/IDN60801/IDN60801.95485.json